Time;durP1;ratioP1;P1;durP2;ratioP2;P2;SDS_P1;SDS_P2;PMS_P1;PMS_P2;Temp;Humidity;BMP_temperature;BMP_pressure;BME280_temperature;BME280_humidity;BME280_pressure;Samples;Min_cycle;Max_cycle;Signal;HPM_P1;HPM_P2
2022/08/01 00:00:29;;;;;;;20.58;17.58;;;;;;;22.48;49.53;99067.16;5075435;28;20483;-85
2022/08/01 00:02:54;;;;;;;15.65;12.50;;;;;;;22.33;49.74;99045.75;5060886;28;20092;-85
2022/08/01 00:05:20;;;;;;;11.13;10.13;;;;;;;22.49;49.47;99070.78;5091402;28;20036;-85
2022/08/01 00:07:45;;;;;;;12.93;9.80;;;;;;;22.48;49.66;99075.69;5075301;28;20096;-85
2022/08/01 00:10:13;;;;;;;10.98;9.73;;;;;;;22.44;49.48;99060.66;5075476;28;20038;-85
2022/08/01 00:12:39;;;;;;;10.77;9.88;;;;;;;22.50;49.30;99072.41;5075402;28;20028;-84
2022/08/01 00:15:07;;;;;;;10.35;9.45;;;;;;;22.47;49.28;99070.38;5074644;28;20058;-85
2022/08/01 00:17:32;;;;;;;10.73;9.82;;;;;;;22.54;49.28;99078.88;5074790;28;20032;-85
2022/08/01 00:19:58;;;;;;;10.43;9.52;;;;;;;22.26;49.37;99056.00;5075166;28;20038;-85
2022/08/01 00:22:23;;;;;;;10.93;9.90;;;;;;;22.32;49.55;99072.59;5074814;28;20120;-84
2022/08/01 00:24:49;;;;;;;11.32;10.32;;;;;;;22.20;49.81;99076.81;5075403;28;20050;-85
2022/08/01 00:27:14;;;;;;;16.05;10.20;;;;;;;21.95;49.95;99036.00;5074899;28;20028;-85
2022/08/01 00:29:40;;;;;;;10.30;9.40;;;;;;;22.08;50.05;99072.47;5073872;28;20057;-85
2022/08/01 00:32:06;;;;;;;11.05;9.98;;;;;;;21.71;50.51;99037.88;5093083;28;20199;-85
2022/08/01 00:34:31;;;;;;;10.30;9.50;;;;;;;21.57;51.07;99061.56;5075054;28;20032;-86
2022/08/01 00:36:57;;;;;;;10.18;9.23;;;;;;;21.59;51.23;99071.31;5073666;28;20043;-85
2022/08/01 00:39:22;;;;;;;13.70;9.90;;;;;;;21.57;51.65;99082.28;5074929;28;20024;-85
2022/08/01 00:41:48;;;;;;;10.98;9.50;;;;;;;21.66;50.73;99073.31;5074117;28;20028;-85
2022/08/01 00:44:13;;;;;;;10.93;8.98;;;;;;;21.72;50.75;99063.09;5074818;28;20027;-84
2022/08/01 00:46:39;;;;;;;10.18;9.38;;;;;;;21.66;50.54;99033.47;5074454;28;20097;-85
2022/08/01 00:49:05;;;;;;;9.55;8.75;;;;;;;22.09;50.02;99074.09;5074589;28;20396;-85
2022/08/01 00:51:30;;;;;;;10.32;9.45;;;;;;;22.07;49.95;99050.91;5073866;28;20531;-85
2022/08/01 00:53:56;;;;;;;12.57;9.18;;;;;;;22.27;49.89;99057.59;5074492;28;20054;-84
2022/08/01 00:56:25;;;;;;;10.40;9.20;;;;;;;22.36;49.36;99053.44;5073556;28;20074;-84
2022/08/01 00:58:51;;;;;;;14.73;8.95;;;;;;;22.55;49.38;99069.09;5074509;28;20024;-85
2022/08/01 01:01:17;;;;;;;9.70;8.80;;;;;;;22.15;49.91;99066.69;5074576;28;20028;-85
2022/08/01 01:03:43;;;;;;;9.85;9.05;;;;;;;22.14;50.14;99071.59;5091897;28;20020;-84
2022/08/01 01:06:27;;;;;;;10.38;9.43;;;;;;;21.83;50.96;99067.84;5074403;28;20035;-85
2022/08/01 01:09:05;;;;;;;10.45;9.43;;;;;;;21.56;51.47;99075.00;5073705;28;20518;-84
2022/08/01 01:12:02;;;;;;;10.65;9.70;;;;;;;21.45;51.95;99069.38;5073338;28;20043;-85
2022/08/01 01:14:51;;;;;;;11.60;9.23;;;;;;;21.45;51.85;99066.53;5074580;28;20024;-84
2022/08/01 01:17:24;;;;;;;10.27;9.27;;;;;;;21.26;52.25;99069.97;5075120;28;20043;-84
2022/08/01 01:19:56;;;;;;;10.40;9.50;;;;;;;21.12;52.57;99073.72;5101634;28;20051;-83
2022/08/01 01:22:36;;;;;;;10.27;9.07;;;;;;;21.10;52.38;99067.63;5084954;28;20565;-85
2022/08/01 01:25:07;;;;;;;9.50;8.70;;;;;;;21.06;52.48;99073.34;5077518;28;20036;-83
2022/08/01 01:27:49;;;;;;;10.15;9.25;;;;;;;21.07;52.69;99068.47;5080676;28;20035;-85
2022/08/01 01:30:16;;;;;;;10.32;9.15;;;;;;;21.13;52.53;99063.94;5079850;28;20047;-85
2022/08/01 01:32:46;;;;;;;9.55;8.75;;;;;;;21.10;52.46;99065.59;5092221;28;20028;-85
2022/08/01 01:35:25;;;;;;;9.07;8.27;;;;;;;21.08;52.49;99064.41;5073933;28;20032;-84
2022/08/01 01:38:00;;;;;;;10.63;9.38;;;;;;;21.06;52.64;99061.97;5071878;28;20503;-85
2022/08/01 01:40:27;;;;;;;19.73;9.85;;;;;;;21.14;52.32;99060.69;5073698;28;20467;-85
2022/08/01 01:42:55;;;;;;;11.93;9.23;;;;;;;21.05;52.63;99054.66;5091956;28;20032;-85
2022/08/01 01:45:23;;;;;;;9.93;9.10;;;;;;;21.00;52.15;99046.59;5073293;28;20512;-85
2022/08/01 01:47:50;;;;;;;9.50;8.35;;;;;;;21.01;51.89;99036.84;5073217;28;20521;-85
2022/08/01 01:50:17;;;;;;;9.05;8.25;;;;;;;21.02;51.97;99053.47;5072803;28;20479;-86
2022/08/01 01:52:45;;;;;;;9.23;8.30;;;;;;;21.02;51.84;99050.63;5073623;28;20461;-85
2022/08/01 01:55:13;;;;;;;9.68;8.30;;;;;;;20.95;52.18;99044.19;5073322;28;20475;-84
2022/08/01 01:57:44;;;;;;;8.07;7.38;;;;;;;20.97;51.81;99050.25;5073180;28;20019;-84
2022/08/01 02:00:11;;;;;;;7.65;6.95;;;;;;;20.83;51.74;99034.91;5073484;28;20497;-85
2022/08/01 02:02:37;;;;;;;7.95;7.28;;;;;;;20.97;51.42;99047.41;5072807;28;20028;-85
2022/08/01 02:05:05;;;;;;;8.30;7.50;;;;;;;20.94;51.90;99054.75;5072318;28;20482;-85
2022/08/01 02:07:32;;;;;;;8.43;7.72;;;;;;;20.93;51.61;99047.44;5072352;28;20494;-85
2022/08/01 02:10:00;;;;;;;8.23;7.00;;;;;;;20.92;51.38;99057.19;5073214;28;20101;-85
2022/08/01 02:12:26;;;;;;;7.57;6.95;;;;;;;21.00;51.43;99047.38;5073472;28;20071;-85
2022/08/01 02:14:53;;;;;;;10.73;6.82;;;;;;;21.07;51.23;99057.09;5073383;28;20399;-85
2022/08/01 02:17:20;;;;;;;8.23;7.50;;;;;;;21.18;50.79;99067.16;5090142;28;20104;-85
2022/08/01 02:19:46;;;;;;;8.18;7.00;;;;;;;21.11;51.13;99052.19;5073153;28;20066;-85
2022/08/01 02:22:20;;;;;;;9.77;7.80;;;;;;;21.27;50.76;99065.88;5073097;28;20020;-85
2022/08/01 02:24:54;;;;;;;9.48;7.65;;;;;;;21.23;51.03;99065.91;5073146;28;20028;-85
2022/08/01 02:27:43;;;;;;;7.57;6.97;;;;;;;21.37;50.50;99065.00;5073038;28;20026;-85
2022/08/01 02:30:12;;;;;;;7.60;6.80;;;;;;;21.27;50.06;99061.00;5072126;28;20023;-85
2022/08/01 02:32:51;;;;;;;9.52;7.60;;;;;;;21.26;49.82;99059.38;5075556;28;20397;-85
2022/08/01 02:35:32;;;;;;;7.53;6.80;;;;;;;21.27;49.96;99065.88;5089074;28;20028;-85
2022/08/01 02:38:00;;;;;;;7.05;6.35;;;;;;;21.27;49.95;99063.84;5054763;28;20110;-85
2022/08/01 02:40:31;;;;;;;12.57;6.97;;;;;;;21.06;50.14;99044.09;5072997;28;20032;-85
2022/08/01 02:42:58;;;;;;;8.48;7.07;;;;;;;21.02;50.38;99055.50;5072979;28;20056;-85
2022/08/01 02:45:26;;;;;;;7.88;7.10;;;;;;;21.06;50.68;99070.50;5071930;28;20028;-86
2022/08/01 02:47:57;;;;;;;8.68;7.20;;;;;;;20.92;50.97;99047.84;5072587;28;20055;-85
2022/08/01 02:50:25;;;;;;;9.35;7.38;;;;;;;20.97;51.13;99058.78;5072768;28;20033;-85
2022/08/01 02:52:53;;;;;;;10.65;8.73;;;;;;;20.80;51.00;99052.78;5073029;28;20051;-86
2022/08/01 02:55:20;;;;;;;8.15;7.40;;;;;;;20.70;51.87;99057.31;5072779;28;20038;-85
2022/08/01 02:57:47;;;;;;;8.23;7.15;;;;;;;20.67;51.72;99045.94;5072654;28;20028;-85
2022/08/01 03:00:15;;;;;;;7.63;6.82;;;;;;;20.71;51.72;99052.41;5072388;28;20028;-85
2022/08/01 03:02:43;;;;;;;8.40;6.82;;;;;;;20.76;51.32;99060.53;5072960;28;20478;-85
2022/08/01 03:05:11;;;;;;;8.50;7.43;;;;;;;20.63;51.61;99060.16;5090955;28;20031;-85
2022/08/01 03:07:38;;;;;;;8.70;6.78;;;;;;;20.54;51.66;99062.66;5072495;28;20028;-85
2022/08/01 03:10:05;;;;;;;12.57;7.35;;;;;;;20.59;51.81;99057.34;5070329;28;20085;-85
2022/08/01 03:12:33;;;;;;;7.80;7.10;;;;;;;20.77;51.10;99059.28;5071574;28;20432;-85
2022/08/01 03:15:00;;;;;;;10.93;6.68;;;;;;;20.79;50.78;99056.84;5075212;28;20032;-85
2022/08/01 03:17:28;;;;;;;18.38;7.05;;;;;;;20.90;50.39;99066.16;5073060;28;20501;-85
2022/08/01 03:19:57;;;;;;;10.80;6.72;;;;;;;21.00;50.15;99057.97;5076044;28;20035;-85
2022/08/01 03:22:25;;;;;;;13.85;7.07;;;;;;;21.07;49.96;99066.44;5076355;28;20461;-86
2022/08/01 03:24:53;;;;;;;11.48;6.38;;;;;;;21.22;49.53;99060.63;5076466;28;20475;-86
2022/08/01 03:27:22;;;;;;;7.53;6.25;;;;;;;21.27;48.95;99057.34;5074201;28;20483;-85
2022/08/01 03:29:49;;;;;;;14.88;6.90;;;;;;;21.30;48.54;99053.66;5073103;28;20089;-85
2022/08/01 03:32:15;;;;;;;7.72;5.97;;;;;;;21.38;48.44;99063.78;5076153;28;20115;-86
2022/08/01 03:34:42;;;;;;;5.80;5.30;;;;;;;21.23;47.88;99036.66;5075613;28;20077;-86
2022/08/01 03:37:16;;;;;;;13.60;7.05;;;;;;;21.45;47.74;99060.84;5075703;28;20036;-86
2022/08/01 03:40:08;;;;;;;14.23;7.03;;;;;;;21.59;47.63;99054.22;5065131;28;20498;-85
2022/08/01 03:42:45;;;;;;;7.47;5.97;;;;;;;21.76;47.49;99057.34;5045699;28;20396;-86
2022/08/01 03:45:24;;;;;;;19.98;6.50;;;;;;;21.73;47.78;99047.63;5056004;28;20032;-86
2022/08/01 03:47:58;;;;;;;16.00;5.93;;;;;;;21.72;47.73;99043.16;5056040;28;20052;-86
2022/08/01 03:50:25;;;;;;;6.38;5.82;;;;;;;21.59;48.07;99037.16;5073899;28;20032;-86
2022/08/01 03:52:51;;;;;;;7.55;6.28;;;;;;;21.55;48.36;99047.78;5075168;28;20020;-85
2022/08/01 03:55:20;;;;;;;10.68;6.35;;;;;;;21.41;48.85;99045.84;5075404;28;20034;-88
2022/08/01 03:57:47;;;;;;;19.77;6.40;;;;;;;21.48;48.73;99058.38;5076931;28;20385;-89
2022/08/01 04:00:18;;;;;;;12.02;5.90;;;;;;;21.50;48.87;99062.44;5076720;28;20035;-87
2022/08/01 04:02:45;;;;;;;15.13;6.65;;;;;;;21.46;48.84;99045.38;5076653;28;20020;-88
2022/08/01 04:05:11;;;;;;;11.93;6.53;;;;;;;21.66;48.70;99058.22;5076629;28;20054;-89
2022/08/01 04:07:38;;;;;;;10.73;6.38;;;;;;;21.25;48.95;99049.22;5076586;28;20023;-89
2022/08/01 04:10:05;;;;;;;16.23;6.93;;;;;;;21.21;49.29;99059.00;5075877;28;20056;-89
2022/08/01 04:12:30;;;;;;;9.25;6.20;;;;;;;21.15;49.55;99058.66;5076493;28;20054;-89
2022/08/01 04:14:56;;;;;;;10.75;6.32;;;;;;;21.12;49.61;99066.00;5076388;28;20027;-89
2022/08/01 04:17:21;;;;;;;9.25;6.68;;;;;;;21.29;49.71;99069.91;5076009;28;20035;-89
2022/08/01 04:19:47;;;;;;;12.18;7.18;;;;;;;21.50;49.46;99065.28;5076222;28;20028;-90
2022/08/01 04:22:15;;;;;;;11.93;6.95;;;;;;;21.38;48.67;99041.00;5076336;28;20062;-90
2022/08/01 04:24:44;;;;;;;9.48;6.07;;;;;;;21.52;47.65;99070.56;5074630;28;20114;-90
2022/08/01 04:27:13;;;;;;;18.13;6.40;;;;;;;21.58;47.33;99068.88;5075767;28;20035;-90
2022/08/01 04:29:39;;;;;;;9.10;6.72;;;;;;;21.63;47.25;99070.44;5094059;28;20024;-89
2022/08/01 04:32:09;;;;;;;21.92;11.18;;;;;;;21.60;47.25;99072.13;5093978;28;20058;-90
2022/08/01 04:34:39;;;;;;;17.70;10.68;;;;;;;21.58;46.65;99051.78;5076287;28;20024;-89
2022/08/01 04:37:09;;;;;;;12.02;6.85;;;;;;;21.84;46.99;99063.75;5092935;28;20047;-89
2022/08/01 04:39:37;;;;;;;9.70;5.22;;;;;;;22.01;46.44;99065.63;5092033;28;20024;-89
2022/08/01 04:42:04;;;;;;;7.93;4.95;;;;;;;22.22;46.21;99074.34;5075418;28;20036;-89
2022/08/01 04:44:32;;;;;;;11.70;5.75;;;;;;;22.30;45.45;99065.28;5094078;28;20027;-88
2022/08/01 04:47:00;;;;;;;10.85;4.93;;;;;;;22.48;45.05;99064.31;5074861;28;20202;-89
2022/08/01 04:49:26;;;;;;;11.55;5.05;;;;;;;22.50;44.86;99063.84;5093852;28;20099;-89
2022/08/01 04:51:57;;;;;;;5.65;5.03;;;;;;;22.55;45.34;99060.56;5075467;28;20524;-89
2022/08/01 04:54:24;;;;;;;8.25;5.70;;;;;;;22.30;45.09;99042.50;5075417;28;20027;-89
2022/08/01 04:56:50;;;;;;;8.02;5.88;;;;;;;22.50;44.91;99055.31;5074121;28;20032;-89
2022/08/01 05:02:00;;;;;;;6.65;5.97;;;;;;;22.50;44.96;99070.38;5092119;28;20031;-89
2022/08/01 05:04:25;;;;;;;8.10;5.45;;;;;;;22.55;45.43;99064.19;5075339;28;20024;-89
2022/08/01 05:06:50;;;;;;;9.10;4.88;;;;;;;22.55;44.55;99058.50;5075440;28;20069;-89
2022/08/01 05:09:16;;;;;;;5.93;4.90;;;;;;;22.70;43.73;99064.81;5075653;28;20604;-90
2022/08/01 05:11:41;;;;;;;5.88;5.15;;;;;;;22.63;43.81;99044.97;5075388;28;20020;-88
2022/08/01 05:14:07;;;;;;;8.38;4.35;;;;;;;22.88;42.84;99077.22;5075743;28;20031;-90
2022/08/01 05:16:32;;;;;;;8.93;4.88;;;;;;;22.95;42.04;99071.41;5075124;28;20092;-86
2022/08/01 05:18:58;;;;;;;5.57;4.78;;;;;;;22.98;41.28;99053.44;5074251;28;20446;-86
2022/08/01 05:21:23;;;;;;;8.88;3.80;;;;;;;23.09;40.74;99048.38;5070489;28;20122;-86
2022/08/01 05:23:49;;;;;;;5.72;4.00;;;;;;;23.28;40.03;99069.69;5071945;28;20410;-87
2022/08/01 05:26:14;;;;;;;6.50;3.65;;;;;;;23.36;39.61;99064.69;5071855;28;20028;-86
2022/08/01 05:28:40;;;;;;;8.43;3.30;;;;;;;23.45;39.32;99046.22;5071912;28;20020;-86
2022/08/01 05:31:05;;;;;;;6.63;3.40;;;;;;;23.76;38.19;99060.31;5088218;28;20548;-86
2022/08/01 05:33:31;;;;;;;5.40;3.33;;;;;;;23.64;36.87;99036.88;5059914;28;20009;-86
2022/08/01 05:35:56;;;;;;;6.30;3.30;;;;;;;23.70;37.19;99040.84;5071263;28;20522;-87
2022/08/01 05:38:21;;;;;;;8.07;3.50;;;;;;;23.76;36.60;99064.00;5053127;28;20079;-87
2022/08/01 05:40:47;;;;;;;5.15;3.55;;;;;;;24.00;37.57;99066.81;5068619;28;20039;-87
2022/08/01 05:43:12;;;;;;;5.38;3.55;;;;;;;24.06;36.93;99061.44;5071477;28;20030;-86
2022/08/01 05:45:38;;;;;;;4.80;3.67;;;;;;;24.21;36.24;99056.25;5070898;28;20411;-86
2022/08/01 05:48:04;;;;;;;3.55;3.25;;;;;;;24.10;35.96;99057.28;5091084;28;20032;-86
2022/08/01 05:50:29;;;;;;;6.18;3.67;;;;;;;24.07;35.82;99057.34;5073400;28;20032;-86
2022/08/01 05:52:55;;;;;;;4.03;3.65;;;;;;;24.17;36.03;99055.50;5073802;28;20020;-87
2022/08/01 05:55:20;;;;;;;4.90;4.40;;;;;;;24.23;35.20;99063.13;5092830;28;20051;-87
2022/08/01 05:57:46;;;;;;;7.47;3.85;;;;;;;24.14;36.16;99042.13;5090640;28;20118;-87
2022/08/01 06:00:12;;;;;;;10.95;4.18;;;;;;;24.33;35.96;99058.47;5083678;28;20114;-89
2022/08/01 06:02:42;;;;;;;10.85;4.18;;;;;;;24.48;35.92;99055.28;5085152;28;21439;-89
2022/08/01 06:05:09;;;;;;;11.13;3.90;;;;;;;24.56;35.36;99047.38;5090958;28;20115;-88
2022/08/01 06:07:35;;;;;;;12.07;3.78;;;;;;;24.49;36.11;99031.19;5073606;28;20031;-90
2022/08/01 06:10:00;;;;;;;8.88;3.53;;;;;;;24.46;35.54;99027.16;5073012;28;20116;-88
2022/08/01 06:12:26;;;;;;;3.55;2.85;;;;;;;24.72;33.70;99058.84;5073611;28;20093;-88
2022/08/01 06:14:51;;;;;;;7.22;3.25;;;;;;;24.70;34.29;99021.31;5071773;28;20020;-90
2022/08/01 06:17:17;;;;;;;5.65;3.35;;;;;;;24.97;33.90;99048.91;5070555;28;20031;-89
2022/08/01 06:19:42;;;;;;;11.15;3.10;;;;;;;24.89;33.27;99031.13;5071731;28;20097;-90
2022/08/01 06:22:08;;;;;;;4.40;2.92;;;;;;;24.80;33.80;99043.19;5064447;28;20024;-89
2022/08/01 06:24:33;;;;;;;6.13;2.60;;;;;;;24.99;32.99;99039.91;5059026;28;20064;-89
2022/08/01 06:26:58;;;;;;;5.75;2.65;;;;;;;24.85;33.43;99026.72;5070156;28;20081;-87
2022/08/01 06:29:24;;;;;;;6.25;2.72;;;;;;;25.02;32.77;99002.63;5088469;28;20039;-90
2022/08/01 06:31:49;;;;;;;5.05;2.75;;;;;;;25.06;33.13;99005.41;5058275;28;20085;-89
2022/08/01 06:34:15;;;;;;;3.28;2.17;;;;;;;25.23;31.78;99027.03;5073844;28;20050;-88
2022/08/01 06:36:41;;;;;;;2.70;2.13;;;;;;;25.43;31.54;99028.19;5074095;28;20483;-89
2022/08/01 06:39:06;;;;;;;9.70;2.45;;;;;;;25.49;31.53;99037.91;5073805;28;20024;-88
2022/08/01 06:41:32;;;;;;;2.85;2.28;;;;;;;25.50;30.93;99014.53;5073628;28;20020;-88
2022/08/01 06:43:59;;;;;;;10.32;2.72;;;;;;;25.73;31.05;99031.97;5072935;28;20055;-89
2022/08/01 06:46:25;;;;;;;10.95;3.85;;;;;;;25.55;31.80;99024.63;5073683;28;20039;-87
2022/08/01 06:48:50;;;;;;;2.88;2.60;;;;;;;25.75;31.62;99006.53;5075264;28;20478;-89
2022/08/01 06:51:19;;;;;;;7.65;2.28;;;;;;;25.74;30.96;99039.28;5078292;28;20020;-89
2022/08/01 06:53:45;;;;;;;7.22;2.85;;;;;;;25.54;31.45;99019.38;5071290;28;20125;-89
2022/08/01 06:56:10;;;;;;;19.05;3.15;;;;;;;25.79;31.22;99010.91;5080311;28;20566;-89
2022/08/01 06:58:36;;;;;;;7.68;2.60;;;;;;;25.90;31.81;99029.88;5074077;28;20502;-88
2022/08/01 07:01:05;;;;;;;3.42;2.50;;;;;;;25.65;31.40;99020.69;5073563;28;20460;-90
2022/08/01 07:03:31;;;;;;;4.80;2.58;;;;;;;25.46;31.59;99027.28;5075984;28;20453;-90
2022/08/01 07:05:57;;;;;;;4.03;2.50;;;;;;;25.60;31.26;98989.75;5081853;28;20020;-88
2022/08/01 07:08:23;;;;;;;3.67;2.75;;;;;;;26.08;31.42;99015.81;5076280;28;20505;-90
2022/08/01 07:10:48;;;;;;;8.00;2.55;;;;;;;26.12;30.61;99007.13;5076608;28;20024;-89
2022/08/01 07:13:18;;;;;;;3.83;2.80;;;;;;;26.19;29.72;99009.03;5077933;28;20107;-88
2022/08/01 07:15:43;;;;;;;5.03;2.45;;;;;;;26.17;30.61;99005.78;5077350;28;20397;-88
2022/08/01 07:18:09;;;;;;;4.40;2.42;;;;;;;26.37;29.67;99014.22;5077174;28;20028;-90
2022/08/01 07:20:34;;;;;;;4.97;2.80;;;;;;;26.47;29.76;98997.94;5070388;28;20433;-86
2022/08/01 07:23:00;;;;;;;10.13;2.85;;;;;;;26.47;29.58;99003.69;5087489;28;20467;-88
2022/08/01 07:25:25;;;;;;;7.97;2.47;;;;;;;26.71;29.40;99004.19;5073739;28;20032;-88
2022/08/01 07:27:51;;;;;;;4.57;2.83;;;;;;;26.74;29.61;99003.25;5077039;28;20020;-89
2022/08/01 07:30:16;;;;;;;7.97;2.63;;;;;;;26.63;29.39;99014.25;5076240;28;20153;-90
2022/08/01 07:32:41;;;;;;;4.65;2.13;;;;;;;26.37;29.35;98997.03;5077012;28;20567;-89
2022/08/01 07:35:07;;;;;;;2.90;2.10;;;;;;;26.70;29.68;98993.16;5074395;28;20032;-89
2022/08/01 07:37:33;;;;;;;12.25;2.80;;;;;;;26.65;29.35;99002.34;5094178;28;20048;-89
2022/08/01 07:39:58;;;;;;;10.52;2.95;;;;;;;27.03;28.85;99013.88;5076629;28;20034;-89
2022/08/01 07:42:24;;;;;;;8.45;2.50;;;;;;;26.80;29.12;99006.34;5076726;28;20033;-89
2022/08/01 07:44:49;;;;;;;3.50;2.22;;;;;;;27.03;29.44;99002.38;5076180;28;20039;-89
2022/08/01 07:47:15;;;;;;;4.63;2.35;;;;;;;26.93;29.19;98992.06;5076467;28;20060;-90
2022/08/01 07:49:41;;;;;;;4.20;2.35;;;;;;;26.82;28.89;98998.09;5065805;28;20067;-89
2022/08/01 07:52:07;;;;;;;3.42;2.60;;;;;;;27.03;29.89;98993.78;5076627;28;20016;-88
2022/08/01 07:54:33;;;;;;;3.70;2.28;;;;;;;26.73;28.95;98972.19;5076124;28;20517;-92
2022/08/01 07:56:58;;;;;;;4.88;2.38;;;;;;;26.65;29.47;98980.19;5076888;28;20016;-91
2022/08/01 07:59:24;;;;;;;3.00;2.20;;;;;;;26.93;29.63;98997.78;5076644;28;20028;-90
2022/08/01 08:01:50;;;;;;;4.20;2.50;;;;;;;27.02;29.13;99000.75;5076312;28;20050;-88
2022/08/01 08:04:17;;;;;;;7.15;2.75;;;;;;;26.90;29.62;98981.47;5075839;28;20028;-86
2022/08/01 08:06:44;;;;;;;7.68;3.03;;;;;;;26.86;29.80;98975.03;5074183;28;20032;-87
2022/08/01 08:09:10;;;;;;;7.38;3.28;;;;;;;27.03;29.40;98990.91;5060493;28;20110;-88
2022/08/01 08:11:35;;;;;;;6.18;2.63;;;;;;;26.96;29.78;98975.97;5075663;28;20035;-88
2022/08/01 08:14:01;;;;;;;5.00;3.70;;;;;;;27.19;29.31;98971.94;5075925;28;20410;-88
2022/08/01 08:16:26;;;;;;;6.60;2.72;;;;;;;27.13;29.20;98962.28;5075108;28;20028;-88
2022/08/01 08:18:52;;;;;;;6.70;2.55;;;;;;;27.46;29.40;98964.88;5070809;28;20073;-90
2022/08/01 08:21:17;;;;;;;5.63;2.45;;;;;;;27.43;28.82;98966.59;5068761;28;20161;-89
2022/08/01 08:26:26;;;;;;;6.13;2.70;;;;;;;27.50;28.70;98965.53;5089461;28;20026;-88
2022/08/01 08:28:52;;;;;;;3.70;2.72;;;;;;;27.65;29.16;98971.59;5066250;28;20016;-89
2022/08/01 08:31:17;;;;;;;3.28;2.30;;;;;;;27.92;28.93;98966.56;5074862;28;20046;-89
2022/08/01 08:33:43;;;;;;;4.82;2.20;;;;;;;28.08;28.75;98977.84;5062241;28;20107;-88
2022/08/01 08:36:08;;;;;;;5.03;2.78;;;;;;;27.72;28.67;98967.66;5060170;28;20020;-89
2022/08/01 08:38:34;;;;;;;3.50;2.55;;;;;;;27.77;29.04;98969.97;5070347;28;20556;-88
2022/08/01 08:41:00;;;;;;;4.43;2.67;;;;;;;28.03;28.10;98967.75;5074666;28;20028;-89
2022/08/01 08:43:25;;;;;;;12.40;3.78;;;;;;;27.98;28.75;98974.09;5066974;28;20020;-88
2022/08/01 08:45:52;;;;;;;3.72;2.60;;;;;;;27.41;29.23;98974.06;5063808;28;20152;-88
2022/08/01 08:48:18;;;;;;;6.25;2.38;;;;;;;27.72;29.18;98976.28;5072020;28;20027;-88
2022/08/01 08:50:45;;;;;;;4.40;2.33;;;;;;;27.74;28.62;98973.75;5067277;28;20024;-88
2022/08/01 08:53:13;;;;;;;9.73;2.40;;;;;;;28.07;28.70;98966.81;5063506;28;20490;-89
2022/08/01 08:55:42;;;;;;;10.88;2.45;;;;;;;27.79;28.68;98958.78;5073423;28;20052;-89
2022/08/01 08:58:14;;;;;;;5.35;2.25;;;;;;;27.73;28.93;98937.66;5090476;28;20043;-88
2022/08/01 09:00:40;;;;;;;10.77;4.03;;;;;;;27.60;28.68;98950.00;5063707;28;20019;-88
2022/08/01 09:03:06;;;;;;;11.73;2.83;;;;;;;28.06;28.47;98960.25;5075342;28;20035;-89
2022/08/01 09:05:32;;;;;;;9.55;2.47;;;;;;;28.17;28.51;98943.44;5074448;28;20069;-88
2022/08/01 09:07:57;;;;;;;3.72;1.83;;;;;;;27.92;28.72;98940.69;5073442;28;20115;-88
2022/08/01 09:10:23;;;;;;;5.03;1.83;;;;;;;28.25;28.20;98958.34;5075068;28;20027;-88
2022/08/01 09:13:10;;;;;;;1.92;1.83;;;;;;;28.08;28.31;98957.72;5074115;28;20619;-88
2022/08/01 09:15:42;;;;;;;6.10;2.08;;;;;;;28.30;28.99;98951.19;5055321;28;20081;-89
2022/08/01 09:18:08;;;;;;;7.95;2.13;;;;;;;28.61;28.29;98946.69;5073401;28;20035;-88
2022/08/01 09:20:36;;;;;;;10.55;2.40;;;;;;;28.08;28.97;98940.47;5075097;28;20016;-88
2022/08/01 09:23:03;;;;;;;7.90;2.30;;;;;;;28.26;27.88;98939.81;5075039;28;20016;-87
2022/08/01 09:25:32;;;;;;;3.75;2.10;;;;;;;28.26;28.55;98933.28;5073818;28;20091;-88
2022/08/01 09:28:06;;;;;;;4.00;2.30;;;;;;;28.48;28.37;98921.72;5075322;28;20024;-88
2022/08/01 09:30:40;;;;;;;2.72;1.90;;;;;;;28.26;28.30;98933.28;5075016;28;20039;-88
2022/08/01 09:33:06;;;;;;;6.47;2.60;;;;;;;28.41;28.20;98925.69;5071648;28;20016;-88
2022/08/01 09:35:36;;;;;;;8.82;2.28;;;;;;;28.59;28.22;98929.91;5074655;28;20022;-87
2022/08/01 09:38:28;;;;;;;3.78;2.30;;;;;;;28.43;28.56;98922.34;5074685;28;20040;-88
2022/08/01 09:41:03;;;;;;;4.72;1.58;;;;;;;28.67;27.51;98934.09;5074621;28;20051;-88
2022/08/01 09:43:30;;;;;;;7.90;2.85;;;;;;;28.25;27.84;98931.69;5074384;28;20032;-89
2022/08/01 09:45:56;;;;;;;4.32;1.73;;;;;;;28.71;28.31;98917.47;5074675;28;20023;-88
2022/08/01 09:48:22;;;;;;;10.75;3.05;;;;;;;28.61;27.97;98917.94;5073651;28;20085;-88
2022/08/01 09:50:51;;;;;;;5.63;3.20;;;;;;;28.61;28.37;98913.00;5069217;28;20028;-89
2022/08/01 09:53:17;;;;;;;8.25;2.10;;;;;;;28.75;28.38;98910.81;5072979;28;20027;-89
2022/08/01 09:55:44;;;;;;;5.25;2.17;;;;;;;28.48;28.11;98903.66;5074140;28;20410;-89
2022/08/01 09:58:11;;;;;;;7.55;2.10;;;;;;;28.75;28.28;98910.81;5074711;28;20108;-90
2022/08/01 10:00:38;;;;;;;7.03;1.92;;;;;;;28.80;27.32;98916.75;5064906;28;20079;-88
2022/08/01 10:03:24;;;;;;;4.57;1.90;;;;;;;28.56;27.74;98928.78;5073880;28;20051;-89
2022/08/01 10:05:51;;;;;;;4.60;1.85;;;;;;;28.48;27.87;98889.28;5072856;28;20024;-90
2022/08/01 10:08:17;;;;;;;4.63;1.77;;;;;;;28.79;28.16;98888.44;5088761;28;20016;-89
2022/08/01 10:11:10;;;;;;;4.72;1.80;;;;;;;29.44;27.03;98913.69;5072772;28;20020;-90
2022/08/01 10:13:36;;;;;;;2.45;1.70;;;;;;;29.18;27.38;98893.81;5078475;28;20444;-89
2022/08/01 10:16:02;;;;;;;5.85;2.30;;;;;;;29.44;27.11;98894.31;5087193;28;20032;-89
2022/08/01 10:18:33;;;;;;;5.70;2.40;;;;;;;29.02;27.10;98906.41;5074757;28;20095;-89
2022/08/01 10:21:01;;;;;;;5.30;3.05;;;;;;;29.33;27.55;98902.63;5072869;28;20020;-90
2022/08/01 10:23:30;;;;;;;3.75;2.08;;;;;;;28.76;27.60;98904.56;5064233;28;20028;-89
2022/08/01 10:25:58;;;;;;;4.78;1.85;;;;;;;28.86;27.26;98905.44;5065319;28;20475;-88
2022/08/01 10:28:25;;;;;;;7.05;2.03;;;;;;;28.73;27.87;98877.56;5068341;28;20028;-87
2022/08/01 10:30:51;;;;;;;5.00;1.80;;;;;;;29.05;27.51;98897.63;5069841;28;20024;-89
2022/08/01 10:33:17;;;;;;;1.77;1.65;;;;;;;28.82;27.47;98884.63;5084023;28;20030;-89
2022/08/01 10:35:45;;;;;;;4.28;2.00;;;;;;;28.96;27.41;98892.66;5082373;28;20059;-89
2022/08/01 10:38:11;;;;;;;6.13;1.88;;;;;;;29.39;27.25;98894.94;5072451;28;20129;-89
2022/08/01 10:40:37;;;;;;;11.10;2.60;;;;;;;29.48;26.93;98894.97;5073619;28;20028;-89
2022/08/01 10:43:03;;;;;;;2.33;1.80;;;;;;;29.04;27.20;98898.91;5076575;28;20040;-88
2022/08/01 10:45:29;;;;;;;5.07;2.10;;;;;;;29.08;27.58;98892.97;5076741;28;20464;-89
2022/08/01 10:48:15;;;;;;;5.72;2.63;;;;;;;29.12;27.03;98885.00;5076322;28;20440;-89
2022/08/01 10:50:46;;;;;;;3.33;2.38;;;;;;;29.69;26.89;98893.19;5054215;28;20472;-88
2022/08/01 10:53:23;;;;;;;4.30;2.13;;;;;;;29.34;26.78;98881.97;5072036;28;20486;-88
2022/08/01 10:55:58;;;;;;;7.43;2.28;;;;;;;29.86;26.01;98892.06;5072332;28;20114;-89
2022/08/01 10:58:36;;;;;;;4.90;2.63;;;;;;;29.24;27.32;98901.34;5074537;28;20085;-90
2022/08/01 11:01:26;;;;;;;15.75;4.18;;;;;;;29.54;26.61;98892.25;5092779;28;20020;-90
2022/08/01 11:03:55;;;;;;;17.42;2.63;;;;;;;29.94;26.85;98899.88;5086353;28;20169;-88
2022/08/01 11:06:25;;;;;;;8.35;2.38;;;;;;;30.06;26.36;98882.91;5073734;28;20513;-88
2022/08/01 11:08:53;;;;;;;12.40;2.55;;;;;;;30.16;25.88;98895.22;5079280;28;20019;-88
2022/08/01 11:11:20;;;;;;;4.88;1.92;;;;;;;29.91;26.20;98885.63;5081302;28;20054;-90
2022/08/01 11:14:12;;;;;;;11.32;2.30;;;;;;;30.28;26.05;98873.25;5091355;28;20039;-89
2022/08/01 11:16:41;;;;;;;6.07;2.28;;;;;;;30.10;25.12;98878.59;5073566;28;20405;-89
2022/08/01 11:19:08;;;;;;;10.60;2.45;;;;;;;29.80;26.06;98840.03;5071667;28;20085;-88
2022/08/01 11:21:52;;;;;;;4.93;2.05;;;;;;;29.73;26.04;98877.81;5073348;28;20024;-88
2022/08/01 11:24:45;;;;;;;12.90;2.78;;;;;;;30.18;26.82;98869.59;5073485;28;20486;-90
2022/08/01 11:27:26;;;;;;;8.00;2.53;;;;;;;29.87;26.10;98862.78;5073444;28;20040;-89
2022/08/01 11:30:09;;;;;;;3.65;1.85;;;;;;;30.14;25.28;98866.06;5071123;28;20501;-88
2022/08/01 11:33:07;;;;;;;5.38;2.45;;;;;;;30.05;25.82;98864.03;5073312;28;20024;-87
2022/08/01 11:35:35;;;;;;;5.78;1.90;;;;;;;29.82;26.23;98861.34;5026629;28;20130;-89
2022/08/01 11:38:24;;;;;;;2.85;2.05;;;;;;;30.29;25.25;98864.13;5074938;28;20063;-88
2022/08/01 11:41:23;;;;;;;12.85;2.28;;;;;;;30.23;25.00;98861.09;5068526;28;20397;-88
2022/08/01 11:44:01;;;;;;;5.28;2.03;;;;;;;30.00;25.07;98865.44;5074950;28;20042;-88